createdAt,value
2023-05-16T00:00:35.592Z,101566.03
2023-05-16T00:02:37.851Z,101572.25
2023-05-16T00:04:39.572Z,101564.31
2023-05-16T00:06:41.411Z,101573.16
2023-05-16T00:08:42.948Z,101574.91
2023-05-16T00:10:44.472Z,101568.75
2023-05-16T00:12:48.306Z,101574.03
2023-05-16T00:14:51.512Z,101567.06
2023-05-16T00:16:59.084Z,101575.84
2023-05-16T00:19:01.047Z,101581.19
2023-05-16T00:21:03.658Z,101583.81
2023-05-16T00:23:05.143Z,101578.59
2023-05-16T00:25:08.762Z,101574.22
2023-05-16T00:27:10.487Z,101575.09
2023-05-16T00:29:11.933Z,101572.47
2023-05-16T00:31:13.467Z,101573.34
2023-05-16T00:33:15.038Z,101575.16
2023-05-16T00:35:16.576Z,101571.63
2023-05-16T00:37:18.055Z,101569.00
2023-05-16T00:39:19.716Z,101573.41
2023-05-16T00:41:21.869Z,101569.03
2023-05-16T00:43:23.443Z,101572.53
2023-05-16T00:45:25.036Z,101566.34
2023-05-16T00:47:26.629Z,101571.63
2023-05-16T00:49:29.530Z,101572.53
2023-05-16T00:51:31.335Z,101577.84
2023-05-16T00:53:32.963Z,101584.00
2023-05-16T00:55:34.605Z,101579.66
2023-05-16T00:57:37.494Z,101577.06
2023-05-16T00:59:40.169Z,101583.19
2023-05-16T01:01:41.931Z,101582.31
2023-05-16T01:03:47.239Z,101578.81
2023-05-16T01:05:49.810Z,101572.66
2023-05-16T01:07:51.343Z,101577.97
2023-05-16T01:09:53.610Z,101577.94
2023-05-16T01:12:21.954Z,101579.69
2023-05-16T01:15:05.126Z,101580.59
2023-05-16T01:17:31.261Z,101581.44
2023-05-16T01:20:02.775Z,101592.00
2023-05-16T01:22:29.283Z,101590.25
2023-05-16T01:24:40.506Z,101599.03
2023-05-16T01:26:42.215Z,101593.78
2023-05-16T01:28:46.498Z,101600.84
2023-05-16T01:30:48.017Z,101595.53
2023-05-16T01:32:49.517Z,101598.16
2023-05-16T01:34:52.111Z,101587.63
2023-05-16T01:36:56.545Z,101593.78
2023-05-16T01:39:19.749Z,101594.63
2023-05-16T01:41:25.451Z,101600.84
2023-05-16T01:43:43.278Z,101600.84
2023-05-16T01:45:53.537Z,101601.69
2023-05-16T01:48:07.374Z,101604.31
2023-05-16T01:50:20.973Z,101608.72
2023-05-16T01:52:37.937Z,101606.09
2023-05-16T01:54:45.181Z,101607.84
2023-05-16T01:56:55.391Z,101605.22
2023-05-16T01:58:59.469Z,101602.63
2023-05-16T02:01:05.693Z,101609.63
2023-05-16T02:03:08.129Z,101610.53
2023-05-16T02:05:09.803Z,101607.94
2023-05-16T02:07:12.012Z,101611.47
2023-05-16T02:09:13.486Z,101605.34
2023-05-16T02:11:14.938Z,101604.47
2023-05-16T02:13:16.374Z,101603.59
2023-05-16T02:15:17.874Z,101606.22
2023-05-16T02:17:19.308Z,101608.88
2023-05-16T02:19:21.217Z,101616.78
2023-05-16T02:21:22.770Z,101620.28
2023-05-16T02:23:24.239Z,101613.31
2023-05-16T02:25:26.303Z,101624.75
2023-05-16T02:27:27.958Z,101624.75
2023-05-16T02:29:29.407Z,101619.50
2023-05-16T02:31:32.953Z,101620.41
2023-05-16T02:33:34.712Z,101617.81
2023-05-16T02:35:36.224Z,101623.09
2023-05-16T02:37:38.921Z,101622.28
2023-05-16T02:39:40.499Z,101630.22
2023-05-16T02:41:41.965Z,101624.09
2023-05-16T02:43:46.767Z,101634.66
2023-05-16T02:45:48.576Z,101636.50
2023-05-16T02:47:50.258Z,101644.44
2023-05-16T02:49:54.576Z,101642.72
2023-05-16T02:51:56.065Z,101644.53
2023-05-16T02:53:59.596Z,101654.25
2023-05-16T02:56:01.250Z,101657.78
2023-05-16T02:58:02.720Z,101662.16
2023-05-16T03:00:06.110Z,101661.31
2023-05-16T03:02:08.184Z,101664.84
2023-05-16T03:04:10.199Z,101663.13
2023-05-16T03:06:11.780Z,101666.66
2023-05-16T03:08:13.267Z,101667.56
2023-05-16T03:10:14.840Z,101664.06
2023-05-16T03:12:16.306Z,101672.88
2023-05-16T03:14:17.814Z,101673.78
2023-05-16T03:16:19.361Z,101678.19
2023-05-16T03:18:21.235Z,101676.47
2023-05-16T03:20:22.767Z,101677.38
2023-05-16T03:22:24.221Z,101678.28
2023-05-16T03:24:26.135Z,101677.44
2023-05-16T03:26:27.796Z,101679.22
2023-05-16T03:28:29.273Z,101691.53
2023-05-16T03:30:30.833Z,101695.06
2023-05-16T03:32:33.343Z,101691.53
2023-05-16T03:34:34.937Z,101700.34
2023-05-16T03:36:38.967Z,101687.22
2023-05-16T03:38:40.820Z,101693.38
2023-05-16T03:40:42.384Z,101691.66
2023-05-16T03:42:43.847Z,101699.56
2023-05-16T03:44:45.766Z,101696.06
2023-05-16T03:46:47.245Z,101703.97
2023-05-16T03:48:48.759Z,101703.09
2023-05-16T03:50:51.362Z,101706.63
2023-05-16T03:52:53.981Z,101709.25
2023-05-16T03:54:55.475Z,101710.13
2023-05-16T03:56:56.913Z,101710.16
2023-05-16T03:58:58.470Z,101712.78
2023-05-16T04:00:59.973Z,101708.41
2023-05-16T04:03:01.469Z,101706.66
2023-05-16T04:05:03.316Z,101713.66
2023-05-16T04:07:04.952Z,101712.78
2023-05-16T04:09:07.633Z,101716.31
2023-05-16T04:11:09.110Z,101712.78
2023-05-16T04:13:10.580Z,101725.06
2023-05-16T04:15:12.071Z,101727.69
2023-05-16T04:17:13.707Z,101728.56
2023-05-16T04:19:15.489Z,101737.31
2023-05-16T04:21:16.952Z,101737.31
2023-05-16T04:23:18.505Z,101738.19
2023-05-16T04:25:20.024Z,101731.16
2023-05-16T04:27:21.786Z,101736.41
2023-05-16T04:29:23.542Z,101735.50
2023-05-16T04:31:28.174Z,101746.91
2023-05-16T04:33:29.756Z,101742.56
2023-05-16T04:35:31.255Z,101730.28
2023-05-16T04:37:32.811Z,101740.84
2023-05-16T04:39:35.403Z,101739.97
2023-05-16T04:41:36.993Z,101740.88
2023-05-16T04:43:38.500Z,101741.75
2023-05-16T04:45:40.713Z,101752.25
2023-05-16T04:47:42.399Z,101755.75
2023-05-16T04:49:43.937Z,101761.88
2023-05-16T04:51:45.420Z,101759.22
2023-05-16T04:53:47.072Z,101760.97
2023-05-16T04:55:48.640Z,101762.72
2023-05-16T04:57:50.123Z,101759.22
2023-05-16T04:59:51.585Z,101761.84
2023-05-16T05:01:53.198Z,101763.56
2023-05-16T05:03:54.792Z,101770.56
2023-05-16T05:05:56.302Z,101764.38
2023-05-16T05:07:58.798Z,101768.72
2023-05-16T05:10:00.336Z,101769.53
2023-05-16T05:12:01.820Z,101766.81
2023-05-16T05:14:03.695Z,101765.03
2023-05-16T05:16:06.066Z,101778.16
2023-05-16T05:18:07.827Z,101776.41
2023-05-16T05:20:10.450Z,101778.16
2023-05-16T05:22:12.189Z,101779.88
2023-05-16T05:24:13.672Z,101773.72
2023-05-16T05:26:15.400Z,101776.38
2023-05-16T05:28:16.881Z,101783.41
2023-05-16T05:30:18.385Z,101785.19
2023-05-16T05:32:19.891Z,101779.91
2023-05-16T05:34:21.460Z,101782.50
2023-05-16T05:36:22.949Z,101781.59
2023-05-16T05:38:24.479Z,101776.28
2023-05-16T05:40:26.238Z,101779.72
2023-05-16T05:42:27.708Z,101784.88
2023-05-16T05:44:29.543Z,101786.59
2023-05-16T05:46:31.421Z,101775.97
2023-05-16T05:48:33.075Z,101781.19
2023-05-16T05:50:34.666Z,101782.00
2023-05-16T05:52:36.177Z,101787.25
2023-05-16T05:54:37.691Z,101791.72
2023-05-16T05:56:39.150Z,101784.78
2023-05-16T05:58:42.009Z,101799.75
2023-05-16T06:00:43.521Z,101791.88
2023-05-16T06:02:45.213Z,101801.56
2023-05-16T06:04:46.837Z,101794.47
2023-05-16T06:06:48.497Z,101793.47
2023-05-16T06:08:49.970Z,101798.63
2023-05-16T06:10:51.511Z,101802.06
2023-05-16T06:12:52.960Z,101802.94
2023-05-16T06:14:54.401Z,101803.78
2023-05-16T06:16:56.189Z,101809.91
2023-05-16T06:18:57.754Z,101815.16
2023-05-16T06:20:59.291Z,101812.50
2023-05-16T06:23:01.545Z,101800.09
2023-05-16T06:25:03.506Z,101808.78
2023-05-16T06:27:05.118Z,101809.56
2023-05-16T06:29:06.660Z,101814.75
2023-05-16T06:31:08.190Z,101816.44
2023-05-16T06:33:09.687Z,101819.91
2023-05-16T06:35:11.261Z,101821.69
2023-05-16T06:37:12.732Z,101818.19
2023-05-16T06:39:14.265Z,101825.34
2023-05-16T06:41:15.754Z,101814.78
2023-05-16T06:43:17.943Z,101830.59
2023-05-16T06:45:19.427Z,101835.03
2023-05-16T06:47:21.594Z,101827.16
2023-05-16T06:49:23.884Z,101838.56
2023-05-16T06:51:25.730Z,101835.94
2023-05-16T06:53:28.734Z,101841.16
2023-05-16T06:55:30.550Z,101840.31
2023-05-16T06:57:32.163Z,101837.66
2023-05-16T06:59:34.320Z,101835.84
2023-05-16T07:01:35.865Z,101840.16
2023-05-16T07:03:37.469Z,101832.94
2023-05-16T07:05:39.168Z,101837.16
2023-05-16T07:07:40.724Z,101840.53
2023-05-16T07:09:42.204Z,101844.03
2023-05-16T07:11:43.747Z,101844.09
2023-05-16T07:13:45.418Z,101846.66
2023-05-16T07:15:46.953Z,101843.19
2023-05-16T07:17:48.613Z,101848.44
2023-05-16T07:19:50.583Z,101844.81
2023-05-16T07:21:52.117Z,101848.22
2023-05-16T07:23:53.680Z,101853.59
2023-05-16T07:25:55.245Z,101847.28
2023-05-16T07:27:56.780Z,101846.06
2023-05-16T07:29:58.393Z,101845.81
2023-05-16T07:31:59.917Z,101851.03
2023-05-16T07:34:01.434Z,101849.13
2023-05-16T07:36:15.346Z,101854.47
2023-05-16T07:38:18.158Z,101859.97
2023-05-16T07:40:21.261Z,101862.69
2023-05-16T07:42:22.817Z,101859.22
2023-05-16T07:44:24.401Z,101861.91
2023-05-16T07:46:26.075Z,101867.25
2023-05-16T07:48:27.950Z,101858.44
2023-05-16T07:50:29.548Z,101871.72
2023-05-16T07:52:31.061Z,101871.72
2023-05-16T07:54:33.372Z,101872.59
2023-05-16T07:56:35.027Z,101868.25
2023-05-16T07:58:36.714Z,101868.13
2023-05-16T08:00:38.208Z,101874.16
2023-05-16T08:02:39.973Z,101873.22
2023-05-16T08:04:41.588Z,101872.09
2023-05-16T08:06:43.153Z,101866.72
2023-05-16T08:08:44.665Z,101873.72
2023-05-16T08:10:46.407Z,101867.47
2023-05-16T08:12:48.380Z,101867.34
2023-05-16T08:14:50.055Z,101874.28
2023-05-16T08:16:51.568Z,101861.59
2023-05-16T08:18:53.395Z,101859.63
2023-05-16T08:20:54.913Z,101868.19
2023-05-16T08:22:56.484Z,101860.78
2023-05-16T08:24:57.995Z,101871.25
2023-05-16T08:26:59.499Z,101870.31
2023-05-16T08:29:01.033Z,101870.56
2023-05-16T08:31:02.562Z,101872.63
2023-05-16T08:33:05.369Z,101872.69
2023-05-16T08:35:07.673Z,101870.94
2023-05-16T08:37:10.303Z,101875.00
2023-05-16T08:39:12.413Z,101867.84
2023-05-16T08:41:13.951Z,101878.41
2023-05-16T08:43:15.506Z,101877.34
2023-05-16T08:45:17.238Z,101875.59
2023-05-16T08:47:21.690Z,101878.50
2023-05-16T08:49:26.920Z,101886.06
2023-05-16T08:51:32.493Z,101872.22
2023-05-16T08:53:45.023Z,101877.03
2023-05-16T08:55:48.584Z,101875.47
2023-05-16T08:57:51.946Z,101884.34
2023-05-16T08:59:55.608Z,101884.34
2023-05-16T09:01:58.387Z,101882.56
2023-05-16T09:04:01.253Z,101878.00
2023-05-16T09:06:06.114Z,101871.50
2023-05-16T09:08:09.659Z,101872.94
2023-05-16T09:10:12.195Z,101860.41
2023-05-16T09:12:13.719Z,101867.03
2023-05-16T09:14:15.365Z,101862.13
2023-05-16T09:16:21.165Z,101866.47
2023-05-16T09:18:22.727Z,101861.25
2023-05-16T09:20:24.259Z,101861.50
2023-05-16T09:22:25.881Z,101870.56
2023-05-16T09:24:27.404Z,101876.97
2023-05-16T09:26:29.028Z,101875.28
2023-05-16T09:28:31.803Z,101870.69
2023-05-16T09:30:34.992Z,101865.19
2023-05-16T09:32:36.823Z,101868.28
2023-05-16T09:34:46.101Z,101872.47
2023-05-16T09:36:54.815Z,101862.00
2023-05-16T09:38:56.253Z,101865.97
2023-05-16T09:40:57.805Z,101874.19
2023-05-16T09:43:07.767Z,101865.47
2023-05-16T09:45:13.309Z,101858.09
2023-05-16T09:47:17.203Z,101858.56
2023-05-16T09:49:19.244Z,101861.09
2023-05-16T09:51:23.367Z,101855.53
2023-05-16T09:53:29.144Z,101853.41
2023-05-16T09:55:31.884Z,101854.09
2023-05-16T09:57:33.377Z,101862.09
2023-05-16T09:59:41.047Z,101855.84
2023-05-16T10:01:42.845Z,101848.53
2023-05-16T10:03:44.555Z,101865.75
2023-05-16T10:05:46.735Z,101870.91
2023-05-16T10:07:49.527Z,101884.56
2023-05-16T10:09:59.007Z,101869.03
2023-05-16T10:12:08.434Z,101882.41
2023-05-16T10:14:11.744Z,101891.47
2023-05-16T10:16:14.408Z,101904.34
2023-05-16T10:18:18.429Z,101938.28
2023-05-16T10:20:21.325Z,101941.13
2023-05-16T10:22:24.608Z,101958.22
2023-05-16T10:24:43.833Z,101952.06
2023-05-16T10:26:45.378Z,101946.31
2023-05-16T10:28:47.665Z,101947.38
2023-05-16T10:30:50.601Z,101929.88
2023-05-16T10:32:53.117Z,101928.91
2023-05-16T10:34:56.231Z,101935.78
2023-05-16T10:36:59.207Z,101938.31
2023-05-16T10:39:01.454Z,101938.03
2023-05-16T10:41:03.541Z,101923.44
2023-05-16T10:43:07.361Z,101929.00
2023-05-16T10:45:19.978Z,101925.72
2023-05-16T10:47:21.650Z,101931.09
2023-05-16T10:49:24.841Z,101920.34
2023-05-16T10:51:37.284Z,101920.81
2023-05-16T10:53:38.813Z,101934.78
2023-05-16T10:55:44.490Z,101956.53
2023-05-16T10:57:46.129Z,101952.53
2023-05-16T10:59:50.014Z,101957.09
2023-05-16T11:01:56.652Z,101953.44
2023-05-16T11:04:04.453Z,101951.31
2023-05-16T11:06:06.450Z,101957.78
2023-05-16T11:08:09.075Z,101954.41
2023-05-16T11:10:15.561Z,101961.59
2023-05-16T11:12:20.782Z,101959.94
2023-05-16T11:14:23.328Z,101966.16
2023-05-16T11:16:28.609Z,101959.13
2023-05-16T11:18:33.112Z,101953.81
2023-05-16T11:20:37.961Z,101958.00
2023-05-16T11:22:41.340Z,101944.78
2023-05-16T11:25:03.310Z,101949.03
2023-05-16T11:27:06.444Z,101945.22
2023-05-16T11:29:08.524Z,101949.56
2023-05-16T11:31:10.192Z,101950.66
2023-05-16T11:33:13.406Z,101947.13
2023-05-16T11:35:17.517Z,101938.53
2023-05-16T11:37:20.200Z,101933.03
2023-05-16T11:39:24.993Z,101928.97
2023-05-16T11:41:26.833Z,101925.50
2023-05-16T11:43:28.319Z,101925.25
2023-05-16T11:45:30.117Z,101925.13
2023-05-16T11:47:32.127Z,101925.75
2023-05-16T11:49:35.571Z,101933.56
2023-05-16T11:51:43.579Z,101933.97
2023-05-16T11:53:45.111Z,101939.38
2023-05-16T11:55:54.789Z,101937.63
2023-05-16T11:57:58.698Z,101977.56
2023-05-16T12:00:15.014Z,101981.03
2023-05-16T12:02:16.755Z,101979.31
2023-05-16T12:04:20.255Z,101981.56
2023-05-16T12:06:21.927Z,101974.94
2023-05-16T12:08:24.676Z,101977.69
2023-05-16T12:10:26.896Z,101964.63
2023-05-16T12:12:28.968Z,101957.66
2023-05-16T12:14:30.647Z,101968.94
2023-05-16T12:16:33.044Z,101959.00
2023-05-16T12:18:34.835Z,101964.66
2023-05-16T12:20:36.485Z,101959.63
2023-05-16T12:22:41.648Z,101957.59
2023-05-16T12:24:43.161Z,101957.63
2023-05-16T12:26:44.776Z,101955.22
2023-05-16T12:28:46.561Z,101954.53
2023-05-16T12:30:48.273Z,101956.13
2023-05-16T12:32:55.687Z,101956.59
2023-05-16T12:34:57.301Z,101961.56
2023-05-16T12:36:59.684Z,101961.53
2023-05-16T12:39:03.837Z,101961.66
2023-05-16T12:41:05.332Z,101970.59
2023-05-16T12:43:17.640Z,101959.91
2023-05-16T12:45:19.390Z,101963.19
2023-05-16T12:47:21.506Z,101954.28
2023-05-16T12:49:23.290Z,101956.00
2023-05-16T12:51:24.814Z,101950.66
2023-05-16T12:53:26.758Z,101941.00
2023-05-16T12:55:28.240Z,101946.31
2023-05-16T12:57:29.737Z,101947.94
2023-05-16T12:59:31.450Z,101942.47
2023-05-16T13:01:34.842Z,101941.53
2023-05-16T13:03:36.689Z,101940.50
2023-05-16T13:05:38.538Z,101943.84
2023-05-16T13:07:40.880Z,101936.72
2023-05-16T13:09:42.419Z,101934.97
2023-05-16T13:11:43.892Z,101931.56
2023-05-16T13:13:45.554Z,101939.44
2023-05-16T13:15:47.900Z,101936.75
2023-05-16T13:17:49.510Z,101941.25
2023-05-16T13:19:51.983Z,101948.53
2023-05-16T13:21:53.463Z,101954.97
2023-05-16T13:23:54.982Z,101963.13
2023-05-16T13:25:56.967Z,101974.03
2023-05-16T13:27:58.495Z,101976.91
2023-05-16T13:30:00.394Z,101977.16
2023-05-16T13:32:02.018Z,101975.56
2023-05-16T13:34:04.228Z,101972.09
2023-05-16T13:36:07.246Z,101971.13
2023-05-16T13:38:10.791Z,101961.28
2023-05-16T13:40:12.404Z,101961.19
2023-05-16T13:42:13.927Z,101961.94
2023-05-16T13:44:16.172Z,101957.44
2023-05-16T13:46:17.945Z,101959.97
2023-05-16T13:48:19.642Z,101962.53
2023-05-16T13:50:21.541Z,101957.13
2023-05-16T13:52:23.019Z,101958.75
2023-05-16T13:54:24.558Z,101953.31
2023-05-16T13:56:26.072Z,101955.84
2023-05-16T13:58:27.629Z,101946.13
2023-05-16T14:00:44.446Z,101947.94
2023-05-16T14:02:47.670Z,101950.59
2023-05-16T14:04:50.078Z,101943.47
2023-05-16T14:06:51.940Z,101959.28
2023-05-16T14:08:53.428Z,101953.13
2023-05-16T14:10:55.098Z,101954.88
2023-05-16T14:12:56.584Z,101963.63
2023-05-16T14:14:59.382Z,101957.38
2023-05-16T14:17:01.329Z,101964.41
2023-05-16T14:19:03.094Z,101956.44
2023-05-16T14:21:05.010Z,101955.69
2023-05-16T14:23:06.598Z,101967.25
2023-05-16T14:25:08.554Z,101965.59
2023-05-16T14:27:10.167Z,101971.84
2023-05-16T14:29:12.304Z,101967.47
2023-05-16T14:31:13.874Z,101968.31
2023-05-16T14:33:15.508Z,101970.03
2023-05-16T14:35:17.227Z,101955.88
2023-05-16T14:37:18.826Z,101961.03
2023-05-16T14:39:20.391Z,101969.59
2023-05-16T14:41:22.666Z,101960.50
2023-05-16T14:43:24.169Z,101968.25
2023-05-16T14:45:25.964Z,101964.78
2023-05-16T14:47:28.974Z,101976.44
2023-05-16T14:49:30.647Z,101973.94
2023-05-16T14:51:32.353Z,101981.16
2023-05-16T14:53:34.008Z,101976.91
2023-05-16T14:55:35.894Z,101974.25
2023-05-16T14:57:37.443Z,101966.19
2023-05-16T14:59:38.973Z,101965.38
2023-05-16T15:01:41.296Z,101967.13
2023-05-16T15:03:54.528Z,101962.78
2023-05-16T15:05:57.885Z,101962.94
2023-05-16T15:08:00.265Z,101964.72
2023-05-16T15:10:02.016Z,101956.69
2023-05-16T15:12:03.804Z,101957.31
2023-05-16T15:14:06.596Z,101958.81
2023-05-16T15:16:08.253Z,101958.72
2023-05-16T15:18:11.238Z,101962.16
2023-05-16T15:20:13.198Z,101966.41
2023-05-16T15:22:15.288Z,101969.03
2023-05-16T15:24:17.971Z,101970.00
2023-05-16T15:26:19.694Z,101975.38
2023-05-16T15:28:22.715Z,101983.44
2023-05-16T15:30:24.501Z,101991.50
2023-05-16T15:32:26.293Z,101984.53
2023-05-16T15:34:28.614Z,101985.53
2023-05-16T15:36:30.187Z,101986.38
2023-05-16T15:38:31.970Z,101986.34
2023-05-16T15:40:33.476Z,101985.53
2023-05-16T15:42:35.673Z,101990.94
2023-05-16T15:44:37.378Z,101996.28
2023-05-16T15:46:39.034Z,101995.38
2023-05-16T15:48:42.858Z,101993.63
2023-05-16T15:50:44.367Z,102003.38
2023-05-16T15:52:45.867Z,101999.13
2023-05-16T15:54:47.339Z,102006.28
2023-05-16T15:56:48.966Z,102004.56
2023-05-16T15:58:50.771Z,102009.00
2023-05-16T16:00:53.778Z,102013.53
2023-05-16T16:02:55.547Z,102016.16
2023-05-16T16:04:57.119Z,102010.75
2023-05-16T16:06:59.032Z,102011.72
2023-05-16T16:09:00.938Z,102011.84
2023-05-16T16:11:02.799Z,102026.09
2023-05-16T16:13:04.707Z,102020.03
2023-05-16T16:15:06.909Z,102015.69
2023-05-16T16:17:08.737Z,102020.19
2023-05-16T16:19:10.353Z,102022.84
2023-05-16T16:21:12.540Z,102023.69
2023-05-16T16:23:14.164Z,102025.47
2023-05-16T16:25:16.171Z,102024.59
2023-05-16T16:27:17.697Z,102020.19
2023-05-16T16:29:19.192Z,102021.97
2023-05-16T16:31:20.799Z,102026.47
2023-05-16T16:33:22.359Z,102039.75
2023-05-16T16:35:26.071Z,102034.50
2023-05-16T16:37:27.848Z,102031.03
2023-05-16T16:39:32.179Z,102038.09
2023-05-16T16:41:34.598Z,102036.47
2023-05-16T16:43:40.055Z,102041.69
2023-05-16T16:45:41.587Z,102029.28
2023-05-16T16:47:43.261Z,102027.34
2023-05-16T16:49:45.526Z,102032.47
2023-05-16T16:51:47.671Z,102029.66
2023-05-16T16:53:49.195Z,102033.09
2023-05-16T16:55:50.803Z,102033.94
2023-05-16T16:57:52.314Z,102038.56
2023-05-16T16:59:53.925Z,102037.00
2023-05-16T17:01:55.520Z,102045.06
2023-05-16T17:03:57.433Z,102049.50
2023-05-16T17:05:58.915Z,102040.69
2023-05-16T17:08:00.577Z,102045.13
2023-05-16T17:10:04.701Z,102054.00
2023-05-16T17:12:08.605Z,102048.75
2023-05-16T17:14:14.440Z,102047.88
2023-05-16T17:16:16.401Z,102051.44
2023-05-16T17:18:18.050Z,102052.34
2023-05-16T17:20:19.745Z,102050.59
2023-05-16T17:22:22.185Z,102054.13
2023-05-16T17:24:23.723Z,102053.22
2023-05-16T17:26:25.304Z,102063.75
2023-05-16T17:28:26.888Z,102062.00
2023-05-16T17:30:28.377Z,102056.75
2023-05-16T17:32:29.910Z,102057.63
2023-05-16T17:34:31.810Z,102064.69
2023-05-16T17:36:33.367Z,102065.59
2023-05-16T17:38:34.860Z,102062.97
2023-05-16T17:40:36.417Z,102075.31
2023-05-16T17:42:38.437Z,102070.94
2023-05-16T17:44:41.105Z,102073.59
2023-05-16T17:46:43.137Z,102071.84
2023-05-16T17:48:44.621Z,102073.63
2023-05-16T17:50:46.199Z,102078.06
2023-05-16T17:52:47.744Z,102076.28
2023-05-16T17:54:49.246Z,102073.63
2023-05-16T17:56:51.189Z,102084.22
2023-05-16T17:58:53.432Z,102084.22
2023-05-16T18:00:55.224Z,102074.50
2023-05-16T18:02:56.787Z,102078.88
2023-05-16T18:04:59.497Z,102076.19
2023-05-16T18:07:01.350Z,102086.72
2023-05-16T18:09:06.470Z,102079.66
2023-05-16T18:11:08.019Z,102085.84
2023-05-16T18:13:09.617Z,102084.09
2023-05-16T18:15:11.989Z,102087.63
2023-05-16T18:17:13.551Z,102085.88
2023-05-16T18:19:15.149Z,102096.47
2023-05-16T18:21:16.899Z,102099.97
2023-05-16T18:23:18.396Z,102098.22
2023-05-16T18:25:20.024Z,102088.53
2023-05-16T18:27:21.558Z,102100.00
2023-05-16T18:29:23.513Z,102105.28
2023-05-16T18:31:25.117Z,102103.53
2023-05-16T18:33:26.690Z,102105.31
2023-05-16T18:35:28.692Z,102103.53
2023-05-16T18:37:31.053Z,102107.06
2023-05-16T18:39:33.059Z,102107.09
2023-05-16T18:41:34.654Z,102119.41
2023-05-16T18:43:36.752Z,102110.63
2023-05-16T18:45:38.261Z,102110.63
2023-05-16T18:47:39.878Z,102108.91
2023-05-16T18:49:41.665Z,102112.47
2023-05-16T18:51:44.169Z,102113.34
2023-05-16T18:53:45.713Z,102103.69
2023-05-16T18:55:48.595Z,102109.88
2023-05-16T18:57:50.120Z,102109.91
2023-05-16T18:59:53.645Z,102115.19
2023-05-16T19:01:55.649Z,102116.09
2023-05-16T19:03:57.605Z,102125.78
2023-05-16T19:05:59.342Z,102124.94
2023-05-16T19:08:00.938Z,102129.34
2023-05-16T19:10:03.783Z,102134.66
2023-05-16T19:12:05.996Z,102132.91
2023-05-16T19:14:08.282Z,102133.81
2023-05-16T19:16:10.207Z,102131.19
2023-05-16T19:18:11.958Z,102136.47
2023-05-16T19:20:13.580Z,102134.75
2023-05-16T19:22:15.149Z,102138.25
2023-05-16T19:24:16.989Z,102140.03
2023-05-16T19:26:18.790Z,102139.19
2023-05-16T19:28:20.528Z,102150.63
2023-05-16T19:30:23.309Z,102157.69
2023-05-16T19:32:24.944Z,102156.81
2023-05-16T19:34:26.732Z,102155.09
2023-05-16T19:36:28.433Z,102156.00
2023-05-16T19:38:29.929Z,102156.88
2023-05-16T19:40:33.900Z,102151.59
2023-05-16T19:42:35.611Z,102150.72
2023-05-16T19:44:37.112Z,102149.84
2023-05-16T19:46:39.318Z,102147.22
2023-05-16T19:48:41.044Z,102159.53
2023-05-16T19:50:42.651Z,102151.63
2023-05-16T19:52:44.225Z,102150.75
2023-05-16T19:54:45.771Z,102154.28
2023-05-16T19:56:47.261Z,102156.06
2023-05-16T19:58:48.896Z,102153.44
2023-05-16T20:00:50.875Z,102150.78
2023-05-16T20:02:52.660Z,102150.78
2023-05-16T20:04:54.398Z,102150.81
2023-05-16T20:06:55.921Z,102151.69
2023-05-16T20:08:57.442Z,102149.94
2023-05-16T20:10:59.039Z,102157.88
2023-05-16T20:13:00.702Z,102157.88
2023-05-16T20:15:02.567Z,102151.72
2023-05-16T20:17:04.227Z,102156.16
2023-05-16T20:19:06.990Z,102162.31
2023-05-16T20:21:08.564Z,102158.81
2023-05-16T20:23:10.116Z,102168.50
2023-05-16T20:25:12.036Z,102162.34
2023-05-16T20:27:13.606Z,102158.81
2023-05-16T20:29:15.114Z,102165.00
2023-05-16T20:31:16.600Z,102159.69
2023-05-16T20:33:18.196Z,102162.34
2023-05-16T20:35:19.860Z,102156.22
2023-05-16T20:37:26.371Z,102158.88
2023-05-16T20:39:28.893Z,102158.88
2023-05-16T20:41:30.444Z,102164.13
2023-05-16T20:43:31.934Z,102169.41
2023-05-16T20:45:33.440Z,102161.50
2023-05-16T20:47:34.970Z,102168.56
2023-05-16T20:49:37.788Z,102172.94
2023-05-16T20:51:39.355Z,102174.69
2023-05-16T20:53:40.833Z,102179.97
2023-05-16T20:55:42.349Z,102165.91
2023-05-16T20:57:44.006Z,102175.59
2023-05-16T20:59:45.631Z,102167.72
2023-05-16T21:01:47.301Z,102168.59
2023-05-16T21:03:48.928Z,102173.88
2023-05-16T21:05:50.500Z,102169.50
2023-05-16T21:07:52.024Z,102174.78
2023-05-16T21:09:53.536Z,102177.44
2023-05-16T21:11:55.137Z,102173.03
2023-05-16T21:13:56.625Z,102173.91
2023-05-16T21:15:58.151Z,102171.28
2023-05-16T21:17:59.737Z,102180.06
2023-05-16T21:20:01.284Z,102177.44
2023-05-16T21:22:03.995Z,102176.53
2023-05-16T21:24:05.845Z,102182.69
2023-05-16T21:26:07.461Z,102173.91
2023-05-16T21:28:09.117Z,102173.91
2023-05-16T21:30:11.297Z,102176.53
2023-05-16T21:32:16.225Z,102176.53
2023-05-16T21:34:17.915Z,102173.91
2023-05-16T21:36:22.335Z,102180.06
2023-05-16T21:38:23.890Z,102177.41
2023-05-16T21:40:25.704Z,102180.06
2023-05-16T21:42:27.490Z,102181.81
2023-05-16T21:44:29.418Z,102175.66
2023-05-16T21:46:30.914Z,102182.69
2023-05-16T21:48:32.555Z,102183.56
2023-05-16T21:50:34.196Z,102180.94
2023-05-16T21:52:36.104Z,102187.97
2023-05-16T21:54:37.613Z,102182.69
2023-05-16T21:56:39.145Z,102171.25
2023-05-16T21:58:42.363Z,102179.19
2023-05-16T22:00:43.846Z,102168.63
2023-05-16T22:02:45.574Z,102174.78
2023-05-16T22:04:47.166Z,102167.75
2023-05-16T22:06:48.676Z,102169.50
2023-05-16T22:08:50.969Z,102172.16
2023-05-16T22:10:52.838Z,102167.75
2023-05-16T22:12:54.335Z,102173.03
2023-05-16T22:14:55.999Z,102173.06
2023-05-16T22:16:57.494Z,102176.56
2023-05-16T22:18:59.066Z,102175.69
2023-05-16T22:21:01.170Z,102173.94
2023-05-16T22:23:02.961Z,102179.22
2023-05-16T22:25:05.152Z,102173.06
2023-05-16T22:27:06.851Z,102169.56
2023-05-16T22:29:08.353Z,102179.25
2023-05-16T22:31:09.877Z,102173.97
2023-05-16T22:33:11.451Z,102172.22
2023-05-16T22:35:13.730Z,102166.06
2023-05-16T22:37:15.383Z,102168.72
2023-05-16T22:39:16.910Z,102165.19
2023-05-16T22:41:18.493Z,102175.75
2023-05-16T22:43:20.206Z,102166.97
2023-05-16T22:45:21.846Z,102167.84
2023-05-16T22:47:23.377Z,102178.38
2023-05-16T22:49:24.956Z,102173.09
2023-05-16T22:51:26.547Z,102173.97
2023-05-16T22:53:28.507Z,102169.59
2023-05-16T22:55:30.301Z,102174.00
2023-05-16T22:57:32.060Z,102169.59
2023-05-16T22:59:34.171Z,102177.50
2023-05-16T23:01:35.827Z,102172.22
2023-05-16T23:03:37.472Z,102171.34
2023-05-16T23:05:39.006Z,102174.88
2023-05-16T23:07:41.340Z,102179.25
2023-05-16T23:09:43.221Z,102175.75
2023-05-16T23:11:44.717Z,102181.91
2023-05-16T23:13:46.476Z,102174.00
2023-05-16T23:15:48.015Z,102173.13
2023-05-16T23:17:49.603Z,102171.38
2023-05-16T23:19:51.560Z,102174.00